Lunamar — 5BNV2 — position and weather

sailwx.info

Track history (hours):
 
Tides and Currents Weather Stations Pressure Air Temp Water Temp Dewpoint Dewpoint Depression Visibility Wind Speed Wind Dir Waves Ship Positions

Lunamar

Last reported at 2014-Nov-26 20:11 UTC. Time now 2014-Nov-28 01:35 UTC.
Position N 55°01' W 000°28'.

Length 90 m; draft 5.2 m.

Type: Cargo ship. MMSI: 212762000.

Date/timePositionNaut miles runAvg speedWind from/ knotsBaromVisibWave heightAir tempDewpointWater temp
2014-Nov-26 20:11N 55°01' W 000°28'6 9.9
2014-Nov-26 19:33N 54°59' W 000°38'1010.2
2014-Nov-26 18:33N 54°55' W 000°55'12 9.9
2014-Nov-26 17:21N 54°51' W 001°14'3 1.1
2014-Nov-26 14:28N 54°50' W 001°20'0 0.0
2014-Nov-26 13:25N 54°50' W 001°20'0 0.0
2014-Nov-26 12:13N 54°50' W 001°20'0 0.0
2014-Nov-26 11:31N 54°50' W 001°20'0 0.0
2014-Nov-26 10:04N 54°50' W 001°20'0 0.0
2014-Nov-26 09:16N 54°50' W 001°20'0 0.0
2014-Nov-25 15:25N 54°50' W 001°20'0 0.0
2014-Nov-25 14:25N 54°50' W 001°20'0 0.0
2014-Nov-25 13:25N 54°50' W 001°20'0 0.0
2014-Nov-25 12:28N 54°50' W 001°20'0 0.0
2014-Nov-25 11:28N 54°50' W 001°20'0 0.0
2014-Nov-25 10:28N 54°50' W 001°20'0 0.0
2014-Nov-25 09:13N 54°50' W 001°20'0 0.0
2014-Nov-25 08:31N 54°50' W 001°20'0 0.0
2014-Nov-24 23:25N 54°50' W 001°20'0 0.0
2014-Nov-24 13:31N 54°50' W 001°20'0 0.0
2014-Nov-24 12:22N 54°50' W 001°20'0 0.0
2014-Nov-24 11:07N 54°50' W 001°20'0 0.0
2014-Nov-24 10:04N 54°50' W 001°20'0 0.0
2014-Nov-24 08:25N 54°50' W 001°20'9 1.5
2014-Nov-24 02:33N 54°53' W 001°05'7 6.8
2014-Nov-24 01:32N 54°55' W 000°54'  
2014-Nov-21 20:33N 57°44' E 011°07'1110.8
2014-Nov-21 19:33N 57°39' E 011°25'9 9.2
2014-Nov-21 18:33N 57°36' E 011°41'0 0.1
2014-Nov-21 17:32N 57°36' E 011°41'0 0.0
2014-Nov-21 16:32N 57°36' E 011°41'1 0.7
2014-Nov-21 15:33N 57°36' E 011°40'9 8.6
2014-Nov-21 14:33N 57°27' E 011°38'5810.7
2014-Nov-21 09:06N 56°30' E 012°01'610.7
2014-Nov-21 08:33N 56°24' E 012°03'10 9.8
2014-Nov-21 07:33N 56°16' E 012°12'1211.7
2014-Nov-21 06:33N 56°09' E 012°29'1111.2
2014-Nov-21 05:33N 56°00' E 012°41'1010.4
2014-Nov-21 04:33N 55°50' E 012°44'1110.7
2014-Nov-21 03:33N 55°39' E 012°42'1010.5
2014-Nov-21 02:33N 55°29' E 012°43'1010.5
2014-Nov-21 01:33N 55°18' E 012°42'1110.8
2014-Nov-21 00:33N 55°16' E 013°01'1111.2
2014-Nov-20 23:33N 55°15' E 013°21'10610.6
2014-Nov-20 13:30N 55°59' E 016°12'  
Track history (hours):
 
Tides and Currents Weather Stations Pressure Air Temp Water Temp Dewpoint Dewpoint Depression Visibility Wind Speed Wind Dir Waves Ship Positions

Lunamar

Last reported at 2014-Nov-26 20:11 UTC. Time now 2014-Nov-28 01:35 UTC.
Position N 55°01' W 000°28'.

Length 90 m; draft 5.2 m.

Type: Cargo ship. MMSI: 212762000.

Date/timePositionNaut miles runAvg speedWind from/ knotsBaromVisibWave heightAir tempDewpointWater temp
2014-Nov-26 20:11N 55°01' W 000°28'6 9.9
2014-Nov-26 19:33N 54°59' W 000°38'1010.2
2014-Nov-26 18:33N 54°55' W 000°55'12 9.9
2014-Nov-26 17:21N 54°51' W 001°14'3 1.1
2014-Nov-26 14:28N 54°50' W 001°20'0 0.0
2014-Nov-26 13:25N 54°50' W 001°20'0 0.0
2014-Nov-26 12:13N 54°50' W 001°20'0 0.0
2014-Nov-26 11:31N 54°50' W 001°20'0 0.0
2014-Nov-26 10:04N 54°50' W 001°20'0 0.0
2014-Nov-26 09:16N 54°50' W 001°20'0 0.0
2014-Nov-25 15:25N 54°50' W 001°20'0 0.0
2014-Nov-25 14:25N 54°50' W 001°20'0 0.0
2014-Nov-25 13:25N 54°50' W 001°20'0 0.0
2014-Nov-25 12:28N 54°50' W 001°20'0 0.0
2014-Nov-25 11:28N 54°50' W 001°20'0 0.0
2014-Nov-25 10:28N 54°50' W 001°20'0 0.0
2014-Nov-25 09:13N 54°50' W 001°20'0 0.0
2014-Nov-25 08:31N 54°50' W 001°20'0 0.0
2014-Nov-24 23:25N 54°50' W 001°20'0 0.0
2014-Nov-24 13:31N 54°50' W 001°20'0 0.0
2014-Nov-24 12:22N 54°50' W 001°20'0 0.0
2014-Nov-24 11:07N 54°50' W 001°20'0 0.0
2014-Nov-24 10:04N 54°50' W 001°20'0 0.0
2014-Nov-24 08:25N 54°50' W 001°20'9 1.5
2014-Nov-24 02:33N 54°53' W 001°05'7 6.8
2014-Nov-24 01:32N 54°55' W 000°54'  
2014-Nov-21 20:33N 57°44' E 011°07'1110.8
2014-Nov-21 19:33N 57°39' E 011°25'9 9.2
2014-Nov-21 18:33N 57°36' E 011°41'0 0.1
2014-Nov-21 17:32N 57°36' E 011°41'0 0.0
2014-Nov-21 16:32N 57°36' E 011°41'1 0.7
2014-Nov-21 15:33N 57°36' E 011°40'9 8.6
2014-Nov-21 14:33N 57°27' E 011°38'5810.7
2014-Nov-21 09:06N 56°30' E 012°01'610.7
2014-Nov-21 08:33N 56°24' E 012°03'10 9.8
2014-Nov-21 07:33N 56°16' E 012°12'1211.7
2014-Nov-21 06:33N 56°09' E 012°29'1111.2
2014-Nov-21 05:33N 56°00' E 012°41'1010.4
2014-Nov-21 04:33N 55°50' E 012°44'1110.7
2014-Nov-21 03:33N 55°39' E 012°42'1010.5
2014-Nov-21 02:33N 55°29' E 012°43'1010.5
2014-Nov-21 01:33N 55°18' E 012°42'1110.8
2014-Nov-21 00:33N 55°16' E 013°01'1111.2
2014-Nov-20 23:33N 55°15' E 013°21'10610.6
2014-Nov-20 13:30N 55°59' E 016°12'  

Dump ship's entire track history